• Join FlightAware (Why Join?)
  • Login
  • US Flag 
05:01PM EDT


 

Airport Tracker/Info


-or-


 

Live Flight TrackerFlight Track Log ✈ N152SK ✈ 09-Sep-2013 ✈ 3I3 - KCMI

Flight Track Log - Related Links

Times and Time Zones

All times are in EDT time to prevent confusion due to time zone crossing. See the N152SK flight status page for this flight to view local times or setup timezone preferences in your user account.

Time Position Orientation Groundspeed Altitude Reporting Facility
EDT Latitude Longitude Course Direction KTS MPH feet Rate Location/Type
06:01PM 39.6367 -87.5417 305° West  Level FlightAware Approximate
06:02PM 39.6545 -87.5746 305° West  Level FlightAware Approximate
06:03PM 39.6722 -87.6075 305° West  Level FlightAware Approximate
06:04PM 39.6903 -87.6402 307° West  Level Estimated
06:04PM 39.7919 -87.7708 306° West 97 112 4,700  Level Chicago Center
06:05PM 39.7086 -87.6725 306° West  Level FlightAware Approximate
06:05PM 39.8094 -87.7956 313° West 97 112 4,700  Level Indianapolis Center
06:06PM 39.7270 -87.7049 306° West  Level FlightAware Approximate
06:06PM 39.8292 -87.8192 317° Northwest 96 110 4,600  Level Indianapolis Center
06:07PM 39.7454 -87.7372 306° West  Level FlightAware Approximate
06:07PM 39.8483 -87.8472 312° West 99 114 4,600  Level Indianapolis Center
06:08PM 39.7638 -87.7696 306° West  Level FlightAware Approximate
06:08PM 39.8672 -87.8806 306° West 99 114 4,600  Level Indianapolis Center
06:09PM 39.7821 -87.8020 306° West  Level FlightAware Approximate
06:10PM 39.8862 -87.9306 296° West  Level FlightAware Approximate
06:17PM 39.9868 -88.1858 299° West  Level FlightAware Approximate
06:18PM 40.0025 -88.2205 311° West  Level FlightAware Approximate
06:19PM 40.0229 -88.2509 311° West  Level FlightAware Approximate
06:20PM 40.0333 -88.2667 311° West  Level FlightAware Approximate
06:21PM 40.0388 -88.2778 311° West  Level Estimated
06:22PM 40.0388 -88.2778 311° West  Level Estimated
06:23PM 40.0388 -88.2778 311° West  Level Estimated
06:24PM 40.0388 -88.2778 311° West  Level Estimated
06:25PM 40.0388 -88.2778 311° West  Level Estimated